sensor_id;sensor_type;location;lat;lon;timestamp;P1;durP1;ratioP1;P2;durP2;ratioP2
70102;SDS011;57470;50.034;15.256;2023-08-31T00:01:02;5.25;;;1.85;;
70102;SDS011;57470;50.034;15.256;2023-08-31T00:03:31;4.63;;;1.60;;
70102;SDS011;57470;50.034;15.256;2023-08-31T00:05:57;4.40;;;1.53;;
70102;SDS011;57470;50.034;15.256;2023-08-31T00:08:22;5.80;;;1.88;;
70102;SDS011;57470;50.034;15.256;2023-08-31T00:10:54;4.83;;;2.20;;
70102;SDS011;57470;50.034;15.256;2023-08-31T00:13:23;4.83;;;1.33;;
70102;SDS011;57470;50.034;15.256;2023-08-31T00:15:49;6.07;;;1.70;;
70102;SDS011;57470;50.034;15.256;2023-08-31T00:18:14;6.20;;;1.60;;
70102;SDS011;57470;50.034;15.256;2023-08-31T00:20:41;5.28;;;1.70;;
70102;SDS011;57470;50.034;15.256;2023-08-31T00:23:08;4.75;;;1.65;;
70102;SDS011;57470;50.034;15.256;2023-08-31T00:25:33;5.05;;;1.63;;
70102;SDS011;57470;50.034;15.256;2023-08-31T00:27:59;11.10;;;1.40;;
70102;SDS011;57470;50.034;15.256;2023-08-31T00:30:30;5.85;;;1.75;;
70102;SDS011;57470;50.034;15.256;2023-08-31T00:32:57;7.97;;;2.33;;
70102;SDS011;57470;50.034;15.256;2023-08-31T00:35:24;6.32;;;1.70;;
70102;SDS011;57470;50.034;15.256;2023-08-31T00:37:52;9.00;;;2.13;;
70102;SDS011;57470;50.034;15.256;2023-08-31T00:40:17;5.40;;;2.05;;
70102;SDS011;57470;50.034;15.256;2023-08-31T00:42:43;8.77;;;1.80;;
70102;SDS011;57470;50.034;15.256;2023-08-31T00:45:08;5.30;;;2.07;;
70102;SDS011;57470;50.034;15.256;2023-08-31T00:47:35;5.18;;;1.52;;
70102;SDS011;57470;50.034;15.256;2023-08-31T00:50:00;5.00;;;1.70;;
70102;SDS011;57470;50.034;15.256;2023-08-31T00:52:26;5.30;;;1.83;;
70102;SDS011;57470;50.034;15.256;2023-08-31T00:54:52;5.30;;;1.87;;
70102;SDS011;57470;50.034;15.256;2023-08-31T00:57:18;4.35;;;1.48;;
70102;SDS011;57470;50.034;15.256;2023-08-31T00:59:43;5.03;;;1.87;;
70102;SDS011;57470;50.034;15.256;2023-08-31T01:08:33;5.63;;;1.33;;
70102;SDS011;57470;50.034;15.256;2023-08-31T01:14:09;4.63;;;1.80;;
70102;SDS011;57470;50.034;15.256;2023-08-31T01:16:41;5.30;;;1.23;;
70102;SDS011;57470;50.034;15.256;2023-08-31T01:19:10;4.75;;;1.75;;
70102;SDS011;57470;50.034;15.256;2023-08-31T01:21:57;3.67;;;1.37;;
70102;SDS011;57470;50.034;15.256;2023-08-31T01:24:28;9.40;;;1.80;;
70102;SDS011;57470;50.034;15.256;2023-08-31T01:26:55;5.20;;;2.15;;
70102;SDS011;57470;50.034;15.256;2023-08-31T01:29:20;4.37;;;1.20;;
70102;SDS011;57470;50.034;15.256;2023-08-31T01:31:46;7.03;;;1.73;;
70102;SDS011;57470;50.034;15.256;2023-08-31T01:34:11;11.57;;;2.00;;
70102;SDS011;57470;50.034;15.256;2023-08-31T01:36:37;5.73;;;1.97;;
70102;SDS011;57470;50.034;15.256;2023-08-31T01:42:13;6.53;;;2.10;;
70102;SDS011;57470;50.034;15.256;2023-08-31T01:44:42;4.93;;;1.88;;
70102;SDS011;57470;50.034;15.256;2023-08-31T01:47:10;4.75;;;1.67;;
70102;SDS011;57470;50.034;15.256;2023-08-31T01:49:38;6.20;;;1.87;;
70102;SDS011;57470;50.034;15.256;2023-08-31T01:52:04;3.83;;;1.52;;
70102;SDS011;57470;50.034;15.256;2023-08-31T01:54:31;4.97;;;2.15;;
70102;SDS011;57470;50.034;15.256;2023-08-31T01:56:56;6.47;;;2.33;;
70102;SDS011;57470;50.034;15.256;2023-08-31T01:59:22;4.40;;;1.55;;
70102;SDS011;57470;50.034;15.256;2023-08-31T02:01:47;4.77;;;1.70;;
70102;SDS011;57470;50.034;15.256;2023-08-31T02:04:13;4.43;;;1.73;;
70102;SDS011;57470;50.034;15.256;2023-08-31T02:06:38;5.07;;;2.03;;
70102;SDS011;57470;50.034;15.256;2023-08-31T02:09:03;7.13;;;2.00;;
70102;SDS011;57470;50.034;15.256;2023-08-31T02:11:30;5.63;;;2.10;;
70102;SDS011;57470;50.034;15.256;2023-08-31T02:14:00;4.72;;;1.70;;
70102;SDS011;57470;50.034;15.256;2023-08-31T02:16:28;6.22;;;2.33;;
70102;SDS011;57470;50.034;15.256;2023-08-31T02:18:55;9.50;;;1.90;;
70102;SDS011;57470;50.034;15.256;2023-08-31T02:21:21;4.18;;;1.63;;
70102;SDS011;57470;50.034;15.256;2023-08-31T02:23:48;5.80;;;2.13;;
70102;SDS011;57470;50.034;15.256;2023-08-31T02:26:15;5.18;;;2.13;;
70102;SDS011;57470;50.034;15.256;2023-08-31T02:28:43;4.68;;;1.77;;
70102;SDS011;57470;50.034;15.256;2023-08-31T02:31:09;5.20;;;2.07;;
70102;SDS011;57470;50.034;15.256;2023-08-31T02:33:39;6.45;;;1.92;;
70102;SDS011;57470;50.034;15.256;2023-08-31T02:36:06;6.05;;;2.22;;
70102;SDS011;57470;50.034;15.256;2023-08-31T02:38:33;4.43;;;1.98;;
70102;SDS011;57470;50.034;15.256;2023-08-31T02:41:00;4.35;;;1.40;;
70102;SDS011;57470;50.034;15.256;2023-08-31T02:43:27;5.90;;;2.30;;
70102;SDS011;57470;50.034;15.256;2023-08-31T02:46:02;6.63;;;2.40;;
70102;SDS011;57470;50.034;15.256;2023-08-31T02:48:29;4.82;;;1.80;;
70102;SDS011;57470;50.034;15.256;2023-08-31T02:50:59;5.90;;;2.40;;
70102;SDS011;57470;50.034;15.256;2023-08-31T02:53:30;4.65;;;1.67;;
70102;SDS011;57470;50.034;15.256;2023-08-31T02:55:57;6.57;;;2.17;;
70102;SDS011;57470;50.034;15.256;2023-08-31T02:58:24;6.25;;;2.28;;
70102;SDS011;57470;50.034;15.256;2023-08-31T03:00:50;5.63;;;1.50;;
70102;SDS011;57470;50.034;15.256;2023-08-31T03:03:18;4.90;;;1.77;;
70102;SDS011;57470;50.034;15.256;2023-08-31T03:05:46;5.82;;;2.13;;
70102;SDS011;57470;50.034;15.256;2023-08-31T03:08:13;4.73;;;1.83;;
70102;SDS011;57470;50.034;15.256;2023-08-31T03:10:40;4.97;;;2.35;;
70102;SDS011;57470;50.034;15.256;2023-08-31T03:13:07;5.43;;;1.98;;
70102;SDS011;57470;50.034;15.256;2023-08-31T03:15:33;5.70;;;1.92;;
70102;SDS011;57470;50.034;15.256;2023-08-31T03:18:01;5.25;;;2.00;;
70102;SDS011;57470;50.034;15.256;2023-08-31T03:20:27;4.90;;;2.07;;
70102;SDS011;57470;50.034;15.256;2023-08-31T03:22:52;4.80;;;1.87;;
70102;SDS011;57470;50.034;15.256;2023-08-31T03:25:18;5.13;;;1.80;;
70102;SDS011;57470;50.034;15.256;2023-08-31T03:27:43;7.13;;;2.53;;
70102;SDS011;57470;50.034;15.256;2023-08-31T03:30:09;4.57;;;1.93;;
70102;SDS011;57470;50.034;15.256;2023-08-31T03:32:34;5.75;;;1.77;;
70102;SDS011;57470;50.034;15.256;2023-08-31T03:35:01;4.33;;;1.13;;
70102;SDS011;57470;50.034;15.256;2023-08-31T03:37:28;7.18;;;1.98;;
70102;SDS011;57470;50.034;15.256;2023-08-31T03:39:54;5.10;;;1.83;;
70102;SDS011;57470;50.034;15.256;2023-08-31T03:42:19;4.40;;;1.80;;
70102;SDS011;57470;50.034;15.256;2023-08-31T03:44:45;7.03;;;1.97;;
70102;SDS011;57470;50.034;15.256;2023-08-31T03:47:10;5.70;;;1.93;;
70102;SDS011;57470;50.034;15.256;2023-08-31T03:49:35;5.07;;;1.80;;
70102;SDS011;57470;50.034;15.256;2023-08-31T03:52:01;4.47;;;1.80;;
70102;SDS011;57470;50.034;15.256;2023-08-31T03:54:26;5.30;;;1.93;;
70102;SDS011;57470;50.034;15.256;2023-08-31T03:56:52;4.68;;;1.45;;
70102;SDS011;57470;50.034;15.256;2023-08-31T03:59:17;5.30;;;1.70;;
70102;SDS011;57470;50.034;15.256;2023-08-31T04:01:43;5.07;;;1.90;;
70102;SDS011;57470;50.034;15.256;2023-08-31T04:04:08;4.63;;;1.70;;
70102;SDS011;57470;50.034;15.256;2023-08-31T04:06:34;5.20;;;1.73;;
70102;SDS011;57470;50.034;15.256;2023-08-31T04:08:59;4.77;;;1.50;;
70102;SDS011;57470;50.034;15.256;2023-08-31T04:11:25;5.53;;;1.90;;
70102;SDS011;57470;50.034;15.256;2023-08-31T04:13:51;8.60;;;1.70;;
70102;SDS011;57470;50.034;15.256;2023-08-31T04:16:16;5.07;;;1.93;;
70102;SDS011;57470;50.034;15.256;2023-08-31T04:18:42;6.07;;;1.77;;
70102;SDS011;57470;50.034;15.256;2023-08-31T04:21:07;5.03;;;1.67;;
70102;SDS011;57470;50.034;15.256;2023-08-31T04:23:33;6.17;;;1.93;;
70102;SDS011;57470;50.034;15.256;2023-08-31T04:25:58;3.88;;;1.35;;
70102;SDS011;57470;50.034;15.256;2023-08-31T04:28:24;7.93;;;1.93;;
70102;SDS011;57470;50.034;15.256;2023-08-31T04:30:50;5.20;;;1.73;;
70102;SDS011;57470;50.034;15.256;2023-08-31T04:33:15;5.15;;;1.63;;
70102;SDS011;57470;50.034;15.256;2023-08-31T04:35:41;5.50;;;2.10;;
70102;SDS011;57470;50.034;15.256;2023-08-31T04:38:06;4.97;;;1.70;;
70102;SDS011;57470;50.034;15.256;2023-08-31T04:40:32;5.40;;;2.03;;
70102;SDS011;57470;50.034;15.256;2023-08-31T04:42:57;5.00;;;1.57;;
70102;SDS011;57470;50.034;15.256;2023-08-31T04:45:22;4.67;;;1.80;;
70102;SDS011;57470;50.034;15.256;2023-08-31T04:47:48;9.87;;;1.60;;
70102;SDS011;57470;50.034;15.256;2023-08-31T04:50:15;4.95;;;1.70;;
70102;SDS011;57470;50.034;15.256;2023-08-31T04:52:41;4.73;;;1.57;;
70102;SDS011;57470;50.034;15.256;2023-08-31T04:55:06;6.07;;;1.60;;
70102;SDS011;57470;50.034;15.256;2023-08-31T04:57:32;8.50;;;2.50;;
70102;SDS011;57470;50.034;15.256;2023-08-31T04:59:58;10.27;;;2.13;;
70102;SDS011;57470;50.034;15.256;2023-08-31T05:02:23;4.77;;;1.60;;
70102;SDS011;57470;50.034;15.256;2023-08-31T05:04:49;4.73;;;1.70;;
70102;SDS011;57470;50.034;15.256;2023-08-31T05:07:14;5.17;;;1.60;;
70102;SDS011;57470;50.034;15.256;2023-08-31T05:09:39;4.50;;;1.53;;
70102;SDS011;57470;50.034;15.256;2023-08-31T05:12:05;4.80;;;2.00;;
70102;SDS011;57470;50.034;15.256;2023-08-31T05:14:32;4.75;;;1.83;;
70102;SDS011;57470;50.034;15.256;2023-08-31T05:17:00;5.28;;;2.17;;
70102;SDS011;57470;50.034;15.256;2023-08-31T05:19:25;5.20;;;1.87;;
70102;SDS011;57470;50.034;15.256;2023-08-31T05:21:50;5.37;;;2.07;;
70102;SDS011;57470;50.034;15.256;2023-08-31T05:24:16;4.82;;;1.88;;
70102;SDS011;57470;50.034;15.256;2023-08-31T05:26:41;5.17;;;1.70;;
70102;SDS011;57470;50.034;15.256;2023-08-31T05:29:06;4.97;;;1.67;;
70102;SDS011;57470;50.034;15.256;2023-08-31T05:31:32;5.23;;;1.80;;
70102;SDS011;57470;50.034;15.256;2023-08-31T05:33:57;7.37;;;1.90;;
70102;SDS011;57470;50.034;15.256;2023-08-31T05:36:23;5.68;;;2.10;;
70102;SDS011;57470;50.034;15.256;2023-08-31T05:38:50;6.63;;;2.17;;
70102;SDS011;57470;50.034;15.256;2023-08-31T05:41:16;6.88;;;2.33;;
70102;SDS011;57470;50.034;15.256;2023-08-31T05:43:43;4.97;;;1.80;;
70102;SDS011;57470;50.034;15.256;2023-08-31T05:46:08;5.63;;;2.22;;
70102;SDS011;57470;50.034;15.256;2023-08-31T05:48:34;5.20;;;2.00;;
70102;SDS011;57470;50.034;15.256;2023-08-31T05:51:01;5.75;;;1.92;;
70102;SDS011;57470;50.034;15.256;2023-08-31T05:53:28;7.18;;;1.92;;
70102;SDS011;57470;50.034;15.256;2023-08-31T05:55:54;5.68;;;2.33;;
70102;SDS011;57470;50.034;15.256;2023-08-31T05:58:27;6.03;;;2.17;;
70102;SDS011;57470;50.034;15.256;2023-08-31T06:00:53;5.22;;;1.92;;
70102;SDS011;57470;50.034;15.256;2023-08-31T06:03:18;4.97;;;1.70;;
70102;SDS011;57470;50.034;15.256;2023-08-31T06:05:43;8.60;;;1.97;;
70102;SDS011;57470;50.034;15.256;2023-08-31T06:08:09;7.17;;;1.83;;
70102;SDS011;57470;50.034;15.256;2023-08-31T06:10:34;8.17;;;2.00;;
70102;SDS011;57470;50.034;15.256;2023-08-31T06:13:00;6.03;;;2.30;;
70102;SDS011;57470;50.034;15.256;2023-08-31T06:15:25;4.90;;;1.80;;
70102;SDS011;57470;50.034;15.256;2023-08-31T06:17:50;4.33;;;1.50;;
70102;SDS011;57470;50.034;15.256;2023-08-31T06:20:16;5.67;;;1.90;;
70102;SDS011;57470;50.034;15.256;2023-08-31T06:22:41;6.03;;;1.80;;
70102;SDS011;57470;50.034;15.256;2023-08-31T06:25:06;5.53;;;2.03;;
70102;SDS011;57470;50.034;15.256;2023-08-31T06:27:33;4.95;;;1.45;;
70102;SDS011;57470;50.034;15.256;2023-08-31T06:29:58;5.67;;;2.23;;
70102;SDS011;57470;50.034;15.256;2023-08-31T06:32:23;4.63;;;1.77;;
70102;SDS011;57470;50.034;15.256;2023-08-31T06:34:49;5.07;;;1.73;;
70102;SDS011;57470;50.034;15.256;2023-08-31T06:37:14;4.40;;;1.50;;
70102;SDS011;57470;50.034;15.256;2023-08-31T06:39:39;6.17;;;2.03;;
70102;SDS011;57470;50.034;15.256;2023-08-31T06:42:06;5.82;;;1.75;;
70102;SDS011;57470;50.034;15.256;2023-08-31T06:44:31;4.70;;;1.60;;
70102;SDS011;57470;50.034;15.256;2023-08-31T06:46:57;4.20;;;1.50;;
70102;SDS011;57470;50.034;15.256;2023-08-31T06:49:22;7.50;;;1.50;;
70102;SDS011;57470;50.034;15.256;2023-08-31T06:51:48;5.80;;;1.37;;
70102;SDS011;57470;50.034;15.256;2023-08-31T06:54:14;3.50;;;1.17;;
70102;SDS011;57470;50.034;15.256;2023-08-31T06:56:39;3.07;;;0.80;;
70102;SDS011;57470;50.034;15.256;2023-08-31T06:59:04;4.17;;;1.27;;
70102;SDS011;57470;50.034;15.256;2023-08-31T07:01:31;5.18;;;1.13;;
70102;SDS011;57470;50.034;15.256;2023-08-31T07:03:57;3.60;;;1.05;;
70102;SDS011;57470;50.034;15.256;2023-08-31T07:06:23;4.80;;;0.80;;
70102;SDS011;57470;50.034;15.256;2023-08-31T07:08:49;4.03;;;1.50;;
70102;SDS011;57470;50.034;15.256;2023-08-31T07:11:14;3.83;;;1.17;;
70102;SDS011;57470;50.034;15.256;2023-08-31T07:13:40;3.40;;;0.90;;
70102;SDS011;57470;50.034;15.256;2023-08-31T07:16:06;3.92;;;1.30;;
70102;SDS011;57470;50.034;15.256;2023-08-31T07:18:31;3.93;;;1.57;;
70102;SDS011;57470;50.034;15.256;2023-08-31T07:20:57;4.13;;;1.37;;
70102;SDS011;57470;50.034;15.256;2023-08-31T07:23:22;10.23;;;1.40;;
70102;SDS011;57470;50.034;15.256;2023-08-31T07:25:48;5.87;;;1.60;;
70102;SDS011;57470;50.034;15.256;2023-08-31T07:28:14;3.50;;;1.13;;
70102;SDS011;57470;50.034;15.256;2023-08-31T07:30:39;6.23;;;1.60;;
70102;SDS011;57470;50.034;15.256;2023-08-31T07:33:05;4.63;;;1.30;;
70102;SDS011;57470;50.034;15.256;2023-08-31T07:35:31;4.25;;;1.02;;
70102;SDS011;57470;50.034;15.256;2023-08-31T07:37:57;4.23;;;1.10;;
70102;SDS011;57470;50.034;15.256;2023-08-31T07:40:22;4.10;;;1.60;;
70102;SDS011;57470;50.034;15.256;2023-08-31T07:42:47;4.93;;;1.42;;
70102;SDS011;57470;50.034;15.256;2023-08-31T07:45:13;4.67;;;1.30;;
70102;SDS011;57470;50.034;15.256;2023-08-31T07:47:39;3.80;;;1.10;;
70102;SDS011;57470;50.034;15.256;2023-08-31T07:50:06;4.23;;;1.10;;
70102;SDS011;57470;50.034;15.256;2023-08-31T07:52:32;3.65;;;1.27;;
70102;SDS011;57470;50.034;15.256;2023-08-31T07:54:58;3.80;;;1.00;;
70102;SDS011;57470;50.034;15.256;2023-08-31T07:57:25;4.70;;;1.10;;
70102;SDS011;57470;50.034;15.256;2023-08-31T07:59:50;4.15;;;1.00;;
70102;SDS011;57470;50.034;15.256;2023-08-31T08:02:16;3.27;;;0.83;;
70102;SDS011;57470;50.034;15.256;2023-08-31T08:04:41;3.60;;;1.05;;
70102;SDS011;57470;50.034;15.256;2023-08-31T08:07:07;4.10;;;0.87;;
70102;SDS011;57470;50.034;15.256;2023-08-31T08:09:33;3.85;;;0.90;;
70102;SDS011;57470;50.034;15.256;2023-08-31T08:11:59;3.70;;;1.00;;
70102;SDS011;57470;50.034;15.256;2023-08-31T08:14:24;4.60;;;1.53;;
70102;SDS011;57470;50.034;15.256;2023-08-31T08:16:49;3.73;;;0.90;;
70102;SDS011;57470;50.034;15.256;2023-08-31T08:19:20;3.63;;;0.83;;
70102;SDS011;57470;50.034;15.256;2023-08-31T08:21:49;4.28;;;1.15;;
70102;SDS011;57470;50.034;15.256;2023-08-31T08:24:15;4.95;;;1.45;;
70102;SDS011;57470;50.034;15.256;2023-08-31T08:26:41;4.50;;;1.00;;
70102;SDS011;57470;50.034;15.256;2023-08-31T08:29:06;6.00;;;1.15;;
70102;SDS011;57470;50.034;15.256;2023-08-31T08:31:31;3.80;;;1.13;;
70102;SDS011;57470;50.034;15.256;2023-08-31T08:33:57;4.30;;;1.27;;
70102;SDS011;57470;50.034;15.256;2023-08-31T08:36:22;3.57;;;0.90;;
70102;SDS011;57470;50.034;15.256;2023-08-31T08:38:48;3.00;;;0.80;;
70102;SDS011;57470;50.034;15.256;2023-08-31T08:41:13;3.80;;;0.90;;
70102;SDS011;57470;50.034;15.256;2023-08-31T08:43:39;3.55;;;1.13;;
70102;SDS011;57470;50.034;15.256;2023-08-31T08:46:08;3.53;;;0.68;;
70102;SDS011;57470;50.034;15.256;2023-08-31T08:48:34;3.20;;;1.08;;
70102;SDS011;57470;50.034;15.256;2023-08-31T08:51:03;3.17;;;0.80;;
70102;SDS011;57470;50.034;15.256;2023-08-31T08:53:29;2.70;;;0.70;;
70102;SDS011;57470;50.034;15.256;2023-08-31T08:55:54;3.93;;;0.77;;
70102;SDS011;57470;50.034;15.256;2023-08-31T08:58:19;3.17;;;0.70;;
70102;SDS011;57470;50.034;15.256;2023-08-31T09:00:45;5.40;;;0.77;;
70102;SDS011;57470;50.034;15.256;2023-08-31T09:03:12;3.42;;;0.98;;
70102;SDS011;57470;50.034;15.256;2023-08-31T09:05:38;3.63;;;0.87;;
70102;SDS011;57470;50.034;15.256;2023-08-31T09:08:04;3.30;;;0.83;;
70102;SDS011;57470;50.034;15.256;2023-08-31T09:10:35;3.25;;;0.98;;
70102;SDS011;57470;50.034;15.256;2023-08-31T09:13:11;3.92;;;0.82;;
70102;SDS011;57470;50.034;15.256;2023-08-31T09:15:45;3.50;;;0.93;;
70102;SDS011;57470;50.034;15.256;2023-08-31T09:18:27;4.43;;;1.13;;
70102;SDS011;57470;50.034;15.256;2023-08-31T09:20:54;3.47;;;0.93;;
70102;SDS011;57470;50.034;15.256;2023-08-31T09:23:21;3.42;;;0.82;;
70102;SDS011;57470;50.034;15.256;2023-08-31T09:25:48;3.17;;;0.77;;
70102;SDS011;57470;50.034;15.256;2023-08-31T09:28:18;4.33;;;1.00;;
70102;SDS011;57470;50.034;15.256;2023-08-31T09:30:46;5.45;;;1.30;;
70102;SDS011;57470;50.034;15.256;2023-08-31T09:33:17;3.45;;;0.93;;
70102;SDS011;57470;50.034;15.256;2023-08-31T09:35:52;4.15;;;1.30;;
70102;SDS011;57470;50.034;15.256;2023-08-31T09:38:19;4.10;;;0.90;;
70102;SDS011;57470;50.034;15.256;2023-08-31T09:40:44;4.37;;;0.93;;
70102;SDS011;57470;50.034;15.256;2023-08-31T09:43:10;4.47;;;0.75;;
70102;SDS011;57470;50.034;15.256;2023-08-31T09:45:36;6.43;;;1.40;;
70102;SDS011;57470;50.034;15.256;2023-08-31T09:48:03;4.57;;;1.27;;
70102;SDS011;57470;50.034;15.256;2023-08-31T09:50:30;4.88;;;1.05;;
70102;SDS011;57470;50.034;15.256;2023-08-31T09:53:03;3.78;;;0.73;;
70102;SDS011;57470;50.034;15.256;2023-08-31T09:55:30;3.80;;;1.20;;
70102;SDS011;57470;50.034;15.256;2023-08-31T09:57:58;3.55;;;0.90;;
70102;SDS011;57470;50.034;15.256;2023-08-31T10:00:28;2.92;;;0.70;;
70102;SDS011;57470;50.034;15.256;2023-08-31T10:02:56;3.97;;;0.80;;
70102;SDS011;57470;50.034;15.256;2023-08-31T10:05:25;2.90;;;0.68;;
70102;SDS011;57470;50.034;15.256;2023-08-31T10:07:50;4.07;;;1.37;;
70102;SDS011;57470;50.034;15.256;2023-08-31T10:10:16;3.28;;;1.00;;
70102;SDS011;57470;50.034;15.256;2023-08-31T10:12:44;2.90;;;0.53;;
70102;SDS011;57470;50.034;15.256;2023-08-31T10:15:11;8.27;;;1.40;;
70102;SDS011;57470;50.034;15.256;2023-08-31T10:17:37;3.40;;;1.00;;
70102;SDS011;57470;50.034;15.256;2023-08-31T10:20:05;3.60;;;1.00;;
70102;SDS011;57470;50.034;15.256;2023-08-31T10:22:33;4.63;;;1.27;;
70102;SDS011;57470;50.034;15.256;2023-08-31T10:25:02;3.67;;;1.10;;
70102;SDS011;57470;50.034;15.256;2023-08-31T10:27:35;4.15;;;1.60;;
70102;SDS011;57470;50.034;15.256;2023-08-31T10:30:24;3.40;;;0.98;;
70102;SDS011;57470;50.034;15.256;2023-08-31T10:38:15;4.13;;;1.37;;
70102;SDS011;57470;50.034;15.256;2023-08-31T10:40:42;3.72;;;1.02;;
70102;SDS011;57470;50.034;15.256;2023-08-31T10:43:25;4.18;;;1.15;;
70102;SDS011;57470;50.034;15.256;2023-08-31T10:45:50;6.20;;;1.00;;
70102;SDS011;57470;50.034;15.256;2023-08-31T10:48:16;4.33;;;1.40;;
70102;SDS011;57470;50.034;15.256;2023-08-31T10:50:42;4.15;;;1.15;;
70102;SDS011;57470;50.034;15.256;2023-08-31T10:53:12;4.20;;;1.30;;
70102;SDS011;57470;50.034;15.256;2023-08-31T10:55:50;4.20;;;1.10;;
70102;SDS011;57470;50.034;15.256;2023-08-31T10:58:17;3.60;;;1.20;;
70102;SDS011;57470;50.034;15.256;2023-08-31T11:00:46;3.80;;;1.40;;
70102;SDS011;57470;50.034;15.256;2023-08-31T11:03:21;3.63;;;0.80;;
70102;SDS011;57470;50.034;15.256;2023-08-31T11:05:53;4.00;;;1.23;;
70102;SDS011;57470;50.034;15.256;2023-08-31T11:08:25;4.20;;;1.10;;
70102;SDS011;57470;50.034;15.256;2023-08-31T11:10:51;4.22;;;1.00;;
70102;SDS011;57470;50.034;15.256;2023-08-31T11:13:20;4.78;;;1.05;;
70102;SDS011;57470;50.034;15.256;2023-08-31T11:15:48;4.75;;;1.33;;
70102;SDS011;57470;50.034;15.256;2023-08-31T11:18:15;4.10;;;1.02;;
70102;SDS011;57470;50.034;15.256;2023-08-31T11:20:42;5.93;;;1.10;;
70102;SDS011;57470;50.034;15.256;2023-08-31T11:23:09;4.00;;;1.33;;
70102;SDS011;57470;50.034;15.256;2023-08-31T11:25:35;4.40;;;0.80;;
70102;SDS011;57470;50.034;15.256;2023-08-31T11:28:01;3.95;;;1.08;;
70102;SDS011;57470;50.034;15.256;2023-08-31T11:30:31;5.80;;;1.60;;
70102;SDS011;57470;50.034;15.256;2023-08-31T11:33:01;4.55;;;1.50;;
70102;SDS011;57470;50.034;15.256;2023-08-31T11:35:30;3.95;;;0.98;;
70102;SDS011;57470;50.034;15.256;2023-08-31T11:37:58;7.00;;;1.17;;
70102;SDS011;57470;50.034;15.256;2023-08-31T11:40:25;5.38;;;1.45;;
70102;SDS011;57470;50.034;15.256;2023-08-31T11:42:52;5.03;;;1.33;;
70102;SDS011;57470;50.034;15.256;2023-08-31T11:45:18;3.33;;;1.05;;
70102;SDS011;57470;50.034;15.256;2023-08-31T11:47:45;4.30;;;1.35;;
70102;SDS011;57470;50.034;15.256;2023-08-31T11:50:12;3.27;;;0.67;;
70102;SDS011;57470;50.034;15.256;2023-08-31T11:52:39;3.25;;;0.80;;
70102;SDS011;57470;50.034;15.256;2023-08-31T11:55:11;3.65;;;0.90;;
70102;SDS011;57470;50.034;15.256;2023-08-31T11:57:37;3.60;;;1.27;;
70102;SDS011;57470;50.034;15.256;2023-08-31T12:00:03;5.27;;;1.10;;
70102;SDS011;57470;50.034;15.256;2023-08-31T12:02:40;3.22;;;0.90;;
70102;SDS011;57470;50.034;15.256;2023-08-31T12:05:05;3.80;;;1.00;;
70102;SDS011;57470;50.034;15.256;2023-08-31T12:07:31;4.10;;;1.42;;
70102;SDS011;57470;50.034;15.256;2023-08-31T12:10:05;8.27;;;1.20;;
70102;SDS011;57470;50.034;15.256;2023-08-31T12:12:32;3.88;;;1.33;;
70102;SDS011;57470;50.034;15.256;2023-08-31T12:15:01;4.40;;;1.00;;
70102;SDS011;57470;50.034;15.256;2023-08-31T12:17:29;3.90;;;1.35;;
70102;SDS011;57470;50.034;15.256;2023-08-31T12:20:01;4.15;;;1.00;;
70102;SDS011;57470;50.034;15.256;2023-08-31T12:22:30;3.37;;;1.00;;
70102;SDS011;57470;50.034;15.256;2023-08-31T12:24:55;5.90;;;1.40;;
70102;SDS011;57470;50.034;15.256;2023-08-31T12:27:20;3.67;;;1.30;;
70102;SDS011;57470;50.034;15.256;2023-08-31T12:29:46;4.67;;;1.20;;
70102;SDS011;57470;50.034;15.256;2023-08-31T12:32:11;5.57;;;1.40;;
70102;SDS011;57470;50.034;15.256;2023-08-31T12:34:37;3.80;;;1.20;;
70102;SDS011;57470;50.034;15.256;2023-08-31T12:37:02;5.20;;;1.30;;
70102;SDS011;57470;50.034;15.256;2023-08-31T12:39:29;4.63;;;1.27;;
70102;SDS011;57470;50.034;15.256;2023-08-31T12:41:55;5.47;;;1.25;;
70102;SDS011;57470;50.034;15.256;2023-08-31T12:44:21;4.18;;;1.15;;
70102;SDS011;57470;50.034;15.256;2023-08-31T12:46:47;3.77;;;1.40;;
70102;SDS011;57470;50.034;15.256;2023-08-31T12:49:12;5.30;;;1.73;;
70102;SDS011;57470;50.034;15.256;2023-08-31T12:51:38;3.78;;;1.17;;
70102;SDS011;57470;50.034;15.256;2023-08-31T12:54:03;3.53;;;1.00;;
70102;SDS011;57470;50.034;15.256;2023-08-31T12:56:29;3.40;;;1.00;;
70102;SDS011;57470;50.034;15.256;2023-08-31T12:58:54;4.72;;;1.30;;
70102;SDS011;57470;50.034;15.256;2023-08-31T13:01:20;3.33;;;0.90;;
70102;SDS011;57470;50.034;15.256;2023-08-31T13:03:46;3.65;;;1.20;;
70102;SDS011;57470;50.034;15.256;2023-08-31T13:06:13;3.33;;;0.70;;
70102;SDS011;57470;50.034;15.256;2023-08-31T13:08:38;3.63;;;1.00;;
70102;SDS011;57470;50.034;15.256;2023-08-31T13:11:04;3.10;;;0.90;;
70102;SDS011;57470;50.034;15.256;2023-08-31T13:13:30;3.58;;;0.95;;
70102;SDS011;57470;50.034;15.256;2023-08-31T13:15:56;3.60;;;1.10;;
70102;SDS011;57470;50.034;15.256;2023-08-31T13:18:22;4.03;;;1.30;;
70102;SDS011;57470;50.034;15.256;2023-08-31T13:20:53;6.87;;;1.47;;
70102;SDS011;57470;50.034;15.256;2023-08-31T13:23:23;4.07;;;1.30;;
70102;SDS011;57470;50.034;15.256;2023-08-31T13:25:48;6.07;;;1.33;;
70102;SDS011;57470;50.034;15.256;2023-08-31T13:28:15;3.67;;;1.33;;
70102;SDS011;57470;50.034;15.256;2023-08-31T13:30:41;3.92;;;1.00;;
70102;SDS011;57470;50.034;15.256;2023-08-31T13:33:07;3.33;;;0.90;;
70102;SDS011;57470;50.034;15.256;2023-08-31T13:35:33;4.72;;;0.93;;
70102;SDS011;57470;50.034;15.256;2023-08-31T13:37:59;3.58;;;0.85;;
70102;SDS011;57470;50.034;15.256;2023-08-31T13:40:25;3.70;;;1.27;;
70102;SDS011;57470;50.034;15.256;2023-08-31T13:42:54;4.38;;;1.10;;
70102;SDS011;57470;50.034;15.256;2023-08-31T13:45:22;3.37;;;1.20;;
70102;SDS011;57470;50.034;15.256;2023-08-31T13:47:48;4.43;;;1.30;;
70102;SDS011;57470;50.034;15.256;2023-08-31T13:50:14;3.10;;;0.73;;
70102;SDS011;57470;50.034;15.256;2023-08-31T13:52:43;4.22;;;0.93;;
70102;SDS011;57470;50.034;15.256;2023-08-31T13:55:08;4.33;;;0.90;;
70102;SDS011;57470;50.034;15.256;2023-08-31T13:57:34;3.20;;;0.80;;
70102;SDS011;57470;50.034;15.256;2023-08-31T14:00:00;3.77;;;0.90;;
70102;SDS011;57470;50.034;15.256;2023-08-31T14:02:25;3.40;;;0.90;;
70102;SDS011;57470;50.034;15.256;2023-08-31T14:04:51;3.33;;;0.90;;
70102;SDS011;57470;50.034;15.256;2023-08-31T14:07:17;3.95;;;0.90;;
70102;SDS011;57470;50.034;15.256;2023-08-31T14:09:43;4.10;;;1.10;;
70102;SDS011;57470;50.034;15.256;2023-08-31T14:12:08;4.27;;;1.17;;
70102;SDS011;57470;50.034;15.256;2023-08-31T14:14:34;3.90;;;1.00;;
70102;SDS011;57470;50.034;15.256;2023-08-31T14:17:00;5.68;;;0.95;;
70102;SDS011;57470;50.034;15.256;2023-08-31T14:19:25;4.40;;;1.20;;
70102;SDS011;57470;50.034;15.256;2023-08-31T14:21:51;5.40;;;1.70;;
70102;SDS011;57470;50.034;15.256;2023-08-31T14:24:18;5.20;;;1.60;;
70102;SDS011;57470;50.034;15.256;2023-08-31T14:26:44;4.25;;;1.50;;
70102;SDS011;57470;50.034;15.256;2023-08-31T14:29:10;4.10;;;0.93;;
70102;SDS011;57470;50.034;15.256;2023-08-31T14:31:36;3.77;;;1.20;;
70102;SDS011;57470;50.034;15.256;2023-08-31T14:34:02;4.00;;;1.10;;
70102;SDS011;57470;50.034;15.256;2023-08-31T14:36:28;3.38;;;0.75;;
70102;SDS011;57470;50.034;15.256;2023-08-31T14:38:54;4.60;;;1.57;;
70102;SDS011;57470;50.034;15.256;2023-08-31T14:41:19;5.00;;;1.65;;
70102;SDS011;57470;50.034;15.256;2023-08-31T14:43:45;3.90;;;1.30;;
70102;SDS011;57470;50.034;15.256;2023-08-31T14:46:11;3.67;;;0.93;;
70102;SDS011;57470;50.034;15.256;2023-08-31T14:48:37;4.80;;;1.60;;